Terminal Aerodrome Forecast
Issued by NWS

Home | Current Version | Previous Version | Text Only | Print | Product List | Glossary On
Versions: 1 2 3 4 5 6 7 8 9 10 11 12 13 14 15 16 17 18
000
FTUS43 KDTX 242335
TAFMBS
TAF
KMBS 242335Z 2500/2524 23028G40KT P6SM OVC018
     FM250100 23020G32KT P6SM OVC025
     FM250500 24016G23KT P6SM OVC025
     FM251600 24015G22KT P6SM BKN040=

USA.gov is the U.S. government's official web portal to all federal, state and local government web resources and services.